sensor_id;sensor_type;location;lat;lon;timestamp;temperature;humidity
41939;DHT22;23057;48.554;14.454;2022-11-04T00:02:09;6.40;99.90
41939;DHT22;23057;48.554;14.454;2022-11-04T00:04:40;6.40;99.90
41939;DHT22;23057;48.554;14.454;2022-11-04T00:07:11;6.40;99.90
41939;DHT22;23057;48.554;14.454;2022-11-04T00:10:05;6.40;99.90
41939;DHT22;23057;48.554;14.454;2022-11-04T00:12:37;6.50;99.90
41939;DHT22;23057;48.554;14.454;2022-11-04T00:15:08;6.60;99.90
41939;DHT22;23057;48.554;14.454;2022-11-04T00:17:57;6.60;99.90
41939;DHT22;23057;48.554;14.454;2022-11-04T00:20:28;6.50;99.90
41939;DHT22;23057;48.554;14.454;2022-11-04T00:23:17;6.40;99.90
41939;DHT22;23057;48.554;14.454;2022-11-04T00:26:08;6.30;99.90
41939;DHT22;23057;48.554;14.454;2022-11-04T00:28:57;6.20;99.90
41939;DHT22;23057;48.554;14.454;2022-11-04T00:31:28;6.20;99.90
41939;DHT22;23057;48.554;14.454;2022-11-04T00:34:19;6.30;99.90
41939;DHT22;23057;48.554;14.454;2022-11-04T00:36:49;6.30;99.90
41939;DHT22;23057;48.554;14.454;2022-11-04T00:39:20;6.40;99.90
41939;DHT22;23057;48.554;14.454;2022-11-04T00:41:51;6.40;99.90
41939;DHT22;23057;48.554;14.454;2022-11-04T00:44:22;6.30;99.90
41939;DHT22;23057;48.554;14.454;2022-11-04T00:46:53;6.30;99.90
41939;DHT22;23057;48.554;14.454;2022-11-04T00:49:23;6.30;99.90
41939;DHT22;23057;48.554;14.454;2022-11-04T00:51:55;6.30;99.90
41939;DHT22;23057;48.554;14.454;2022-11-04T00:54:25;6.20;99.90
41939;DHT22;23057;48.554;14.454;2022-11-04T00:56:56;6.20;99.90
41939;DHT22;23057;48.554;14.454;2022-11-04T00:59:27;6.20;99.90
41939;DHT22;23057;48.554;14.454;2022-11-04T01:01:58;6.30;99.90
41939;DHT22;23057;48.554;14.454;2022-11-04T01:04:29;6.30;99.90
41939;DHT22;23057;48.554;14.454;2022-11-04T01:07:00;6.40;99.90
41939;DHT22;23057;48.554;14.454;2022-11-04T01:09:33;6.50;99.90
41939;DHT22;23057;48.554;14.454;2022-11-04T01:12:04;6.50;99.90
41939;DHT22;23057;48.554;14.454;2022-11-04T01:14:35;6.60;99.90
41939;DHT22;23057;48.554;14.454;2022-11-04T01:17:06;6.60;99.90
41939;DHT22;23057;48.554;14.454;2022-11-04T01:19:37;6.70;99.90
41939;DHT22;23057;48.554;14.454;2022-11-04T01:22:07;6.60;99.90
41939;DHT22;23057;48.554;14.454;2022-11-04T01:24:38;6.60;99.90
41939;DHT22;23057;48.554;14.454;2022-11-04T01:27:09;6.60;99.90
41939;DHT22;23057;48.554;14.454;2022-11-04T01:29:40;6.60;99.90
41939;DHT22;23057;48.554;14.454;2022-11-04T01:32:11;6.70;99.90
41939;DHT22;23057;48.554;14.454;2022-11-04T01:34:41;6.70;99.90
41939;DHT22;23057;48.554;14.454;2022-11-04T01:37:12;6.80;99.90
41939;DHT22;23057;48.554;14.454;2022-11-04T01:39:43;6.80;99.90
41939;DHT22;23057;48.554;14.454;2022-11-04T01:42:14;6.80;99.90
41939;DHT22;23057;48.554;14.454;2022-11-04T01:44:54;6.60;99.90
41939;DHT22;23057;48.554;14.454;2022-11-04T01:47:43;6.40;99.90
41939;DHT22;23057;48.554;14.454;2022-11-04T01:50:36;6.50;99.90
41939;DHT22;23057;48.554;14.454;2022-11-04T01:53:17;6.70;99.90
41939;DHT22;23057;48.554;14.454;2022-11-04T01:56:05;6.80;99.90
41939;DHT22;23057;48.554;14.454;2022-11-04T01:58:51;6.80;99.90
41939;DHT22;23057;48.554;14.454;2022-11-04T02:01:28;6.90;99.90
41939;DHT22;23057;48.554;14.454;2022-11-04T02:04:00;6.90;99.90
41939;DHT22;23057;48.554;14.454;2022-11-04T02:07:01;7.00;99.90
41939;DHT22;23057;48.554;14.454;2022-11-04T02:09:38;7.10;99.90
41939;DHT22;23057;48.554;14.454;2022-11-04T02:12:11;7.00;99.90
41939;DHT22;23057;48.554;14.454;2022-11-04T02:15:01;6.80;99.90
41939;DHT22;23057;48.554;14.454;2022-11-04T02:30:22;6.90;99.90
41939;DHT22;23057;48.554;14.454;2022-11-04T02:36:53;6.90;99.90
41939;DHT22;23057;48.554;14.454;2022-11-04T02:42:43;7.10;99.90
41939;DHT22;23057;48.554;14.454;2022-11-04T02:45:46;7.10;99.90
41939;DHT22;23057;48.554;14.454;2022-11-04T02:51:19;7.10;99.90
41939;DHT22;23057;48.554;14.454;2022-11-04T02:54:13;7.10;99.90
41939;DHT22;23057;48.554;14.454;2022-11-04T02:56:57;7.30;99.90
41939;DHT22;23057;48.554;14.454;2022-11-04T02:59:40;7.80;99.90
41939;DHT22;23057;48.554;14.454;2022-11-04T03:02:33;8.40;99.90
41939;DHT22;23057;48.554;14.454;2022-11-04T03:05:21;8.70;99.90
41939;DHT22;23057;48.554;14.454;2022-11-04T03:08:13;8.80;99.90
41939;DHT22;23057;48.554;14.454;2022-11-04T03:10:55;8.80;99.90
41939;DHT22;23057;48.554;14.454;2022-11-04T03:16:36;9.00;99.90
41939;DHT22;23057;48.554;14.454;2022-11-04T03:19:32;8.70;99.90
41939;DHT22;23057;48.554;14.454;2022-11-04T03:22:22;8.60;99.90
41939;DHT22;23057;48.554;14.454;2022-11-04T03:24:57;8.50;99.90
41939;DHT22;23057;48.554;14.454;2022-11-04T03:27:56;8.60;99.90
41939;DHT22;23057;48.554;14.454;2022-11-04T03:30:45;8.70;99.90
41939;DHT22;23057;48.554;14.454;2022-11-04T03:33:29;8.90;99.90
41939;DHT22;23057;48.554;14.454;2022-11-04T03:36:13;9.00;99.90
41939;DHT22;23057;48.554;14.454;2022-11-04T03:38:45;9.10;99.90
41939;DHT22;23057;48.554;14.454;2022-11-04T03:41:33;9.10;99.90
41939;DHT22;23057;48.554;14.454;2022-11-04T03:44:12;9.10;99.90
41939;DHT22;23057;48.554;14.454;2022-11-04T03:46:43;9.10;99.90
41939;DHT22;23057;48.554;14.454;2022-11-04T03:49:15;9.10;99.90
41939;DHT22;23057;48.554;14.454;2022-11-04T03:51:47;9.10;99.90
41939;DHT22;23057;48.554;14.454;2022-11-04T03:54:18;9.20;99.90
41939;DHT22;23057;48.554;14.454;2022-11-04T04:00:22;9.20;99.90
41939;DHT22;23057;48.554;14.454;2022-11-04T04:03:01;9.20;99.90
41939;DHT22;23057;48.554;14.454;2022-11-04T04:05:58;9.30;99.90
41939;DHT22;23057;48.554;14.454;2022-11-04T04:08:50;9.30;99.90
41939;DHT22;23057;48.554;14.454;2022-11-04T04:11:57;9.40;99.90
41939;DHT22;23057;48.554;14.454;2022-11-04T04:14:39;9.40;99.90
41939;DHT22;23057;48.554;14.454;2022-11-04T04:17:27;9.40;99.90
41939;DHT22;23057;48.554;14.454;2022-11-04T04:20:17;9.40;99.90
41939;DHT22;23057;48.554;14.454;2022-11-04T04:25:56;9.30;99.90
41939;DHT22;23057;48.554;14.454;2022-11-04T04:28:53;9.30;99.90
41939;DHT22;23057;48.554;14.454;2022-11-04T04:31:27;9.30;99.90
41939;DHT22;23057;48.554;14.454;2022-11-04T04:34:26;9.30;99.90
41939;DHT22;23057;48.554;14.454;2022-11-04T04:39:57;9.30;99.90
41939;DHT22;23057;48.554;14.454;2022-11-04T04:42:50;9.30;99.90
41939;DHT22;23057;48.554;14.454;2022-11-04T04:45:42;9.30;99.90
41939;DHT22;23057;48.554;14.454;2022-11-04T04:48:22;9.20;99.90
41939;DHT22;23057;48.554;14.454;2022-11-04T04:50:56;9.20;99.90
41939;DHT22;23057;48.554;14.454;2022-11-04T04:53:31;9.20;99.90
41939;DHT22;23057;48.554;14.454;2022-11-04T04:56:02;9.10;99.90
41939;DHT22;23057;48.554;14.454;2022-11-04T04:58:33;9.10;99.90
41939;DHT22;23057;48.554;14.454;2022-11-04T05:01:03;9.10;99.90
41939;DHT22;23057;48.554;14.454;2022-11-04T05:03:34;9.10;99.90
41939;DHT22;23057;48.554;14.454;2022-11-04T05:06:05;9.10;99.90
41939;DHT22;23057;48.554;14.454;2022-11-04T05:08:36;9.10;99.90
41939;DHT22;23057;48.554;14.454;2022-11-04T05:11:07;9.00;99.90
41939;DHT22;23057;48.554;14.454;2022-11-04T05:13:38;9.00;99.90
41939;DHT22;23057;48.554;14.454;2022-11-04T05:16:10;9.10;99.90
41939;DHT22;23057;48.554;14.454;2022-11-04T05:18:41;9.00;99.90
41939;DHT22;23057;48.554;14.454;2022-11-04T05:21:14;9.10;99.90
41939;DHT22;23057;48.554;14.454;2022-11-04T05:23:45;9.00;99.90
41939;DHT22;23057;48.554;14.454;2022-11-04T05:26:16;9.00;99.90
41939;DHT22;23057;48.554;14.454;2022-11-04T05:28:47;9.00;99.90
41939;DHT22;23057;48.554;14.454;2022-11-04T05:31:17;9.00;99.90
41939;DHT22;23057;48.554;14.454;2022-11-04T05:33:48;9.00;99.90
41939;DHT22;23057;48.554;14.454;2022-11-04T05:36:19;9.00;99.90
41939;DHT22;23057;48.554;14.454;2022-11-04T05:38:51;8.90;99.90
41939;DHT22;23057;48.554;14.454;2022-11-04T05:41:25;9.00;99.90
41939;DHT22;23057;48.554;14.454;2022-11-04T05:43:58;9.00;99.90
41939;DHT22;23057;48.554;14.454;2022-11-04T05:46:32;9.00;99.90
41939;DHT22;23057;48.554;14.454;2022-11-04T05:49:03;9.00;99.90
41939;DHT22;23057;48.554;14.454;2022-11-04T05:51:34;9.00;99.90
41939;DHT22;23057;48.554;14.454;2022-11-04T05:54:05;9.00;99.90
41939;DHT22;23057;48.554;14.454;2022-11-04T05:56:36;8.90;99.90
41939;DHT22;23057;48.554;14.454;2022-11-04T05:59:07;9.00;99.90
41939;DHT22;23057;48.554;14.454;2022-11-04T06:01:39;8.90;99.90
41939;DHT22;23057;48.554;14.454;2022-11-04T06:04:17;8.90;99.90
41939;DHT22;23057;48.554;14.454;2022-11-04T06:06:48;8.90;99.90
41939;DHT22;23057;48.554;14.454;2022-11-04T06:09:19;8.90;99.90
41939;DHT22;23057;48.554;14.454;2022-11-04T06:11:50;8.90;99.90
41939;DHT22;23057;48.554;14.454;2022-11-04T06:14:21;8.80;99.90
41939;DHT22;23057;48.554;14.454;2022-11-04T06:16:53;8.90;99.90
41939;DHT22;23057;48.554;14.454;2022-11-04T06:19:24;8.90;99.90
41939;DHT22;23057;48.554;14.454;2022-11-04T06:21:55;8.90;99.90
41939;DHT22;23057;48.554;14.454;2022-11-04T06:24:26;8.80;99.90
41939;DHT22;23057;48.554;14.454;2022-11-04T06:26:57;8.80;99.90
41939;DHT22;23057;48.554;14.454;2022-11-04T06:29:28;8.80;99.90
41939;DHT22;23057;48.554;14.454;2022-11-04T06:31:58;8.80;99.90
41939;DHT22;23057;48.554;14.454;2022-11-04T06:34:29;8.70;99.90
41939;DHT22;23057;48.554;14.454;2022-11-04T06:37:00;8.70;99.90
41939;DHT22;23057;48.554;14.454;2022-11-04T06:39:31;8.70;99.90
41939;DHT22;23057;48.554;14.454;2022-11-04T06:42:03;8.60;99.90
41939;DHT22;23057;48.554;14.454;2022-11-04T06:44:34;8.60;99.90
41939;DHT22;23057;48.554;14.454;2022-11-04T06:47:06;8.60;99.90
41939;DHT22;23057;48.554;14.454;2022-11-04T06:49:39;8.60;99.90
41939;DHT22;23057;48.554;14.454;2022-11-04T06:52:10;8.60;99.90
41939;DHT22;23057;48.554;14.454;2022-11-04T06:54:40;8.60;99.90
41939;DHT22;23057;48.554;14.454;2022-11-04T06:57:11;8.50;99.90
41939;DHT22;23057;48.554;14.454;2022-11-04T06:59:42;8.50;99.90
41939;DHT22;23057;48.554;14.454;2022-11-04T07:02:13;8.50;99.90
41939;DHT22;23057;48.554;14.454;2022-11-04T07:04:44;8.50;99.90
41939;DHT22;23057;48.554;14.454;2022-11-04T07:07:15;8.40;99.90
41939;DHT22;23057;48.554;14.454;2022-11-04T07:09:45;8.40;99.90
41939;DHT22;23057;48.554;14.454;2022-11-04T07:12:16;8.40;99.90
41939;DHT22;23057;48.554;14.454;2022-11-04T07:14:47;8.40;99.90
41939;DHT22;23057;48.554;14.454;2022-11-04T07:17:18;8.40;99.90
41939;DHT22;23057;48.554;14.454;2022-11-04T07:19:49;8.40;99.90
41939;DHT22;23057;48.554;14.454;2022-11-04T07:22:20;8.40;99.90
41939;DHT22;23057;48.554;14.454;2022-11-04T07:24:51;8.40;99.90
41939;DHT22;23057;48.554;14.454;2022-11-04T07:27:22;8.30;99.90
41939;DHT22;23057;48.554;14.454;2022-11-04T07:29:53;8.40;99.90
41939;DHT22;23057;48.554;14.454;2022-11-04T07:32:24;8.40;99.90
41939;DHT22;23057;48.554;14.454;2022-11-04T07:34:54;8.40;99.90
41939;DHT22;23057;48.554;14.454;2022-11-04T07:37:25;8.30;99.90
41939;DHT22;23057;48.554;14.454;2022-11-04T07:39:56;8.30;99.90
41939;DHT22;23057;48.554;14.454;2022-11-04T07:42:27;8.30;99.90
41939;DHT22;23057;48.554;14.454;2022-11-04T07:44:58;8.30;99.90
41939;DHT22;23057;48.554;14.454;2022-11-04T07:47:29;8.30;99.90
41939;DHT22;23057;48.554;14.454;2022-11-04T07:50:01;8.30;99.90
41939;DHT22;23057;48.554;14.454;2022-11-04T07:52:32;8.30;99.90
41939;DHT22;23057;48.554;14.454;2022-11-04T07:55:03;8.30;99.90
41939;DHT22;23057;48.554;14.454;2022-11-04T07:57:34;8.30;99.90
41939;DHT22;23057;48.554;14.454;2022-11-04T08:00:06;8.30;99.90
41939;DHT22;23057;48.554;14.454;2022-11-04T08:02:38;8.40;99.90
41939;DHT22;23057;48.554;14.454;2022-11-04T08:05:09;8.30;99.90
41939;DHT22;23057;48.554;14.454;2022-11-04T08:07:41;8.30;99.90
41939;DHT22;23057;48.554;14.454;2022-11-04T08:10:13;8.30;99.90
41939;DHT22;23057;48.554;14.454;2022-11-04T08:12:43;8.30;99.90
41939;DHT22;23057;48.554;14.454;2022-11-04T08:15:14;8.40;99.90
41939;DHT22;23057;48.554;14.454;2022-11-04T08:17:45;8.40;99.90
41939;DHT22;23057;48.554;14.454;2022-11-04T08:20:16;8.40;99.90
41939;DHT22;23057;48.554;14.454;2022-11-04T08:22:47;8.60;99.90
41939;DHT22;23057;48.554;14.454;2022-11-04T08:25:18;8.50;99.90
41939;DHT22;23057;48.554;14.454;2022-11-04T08:27:49;8.30;99.90
41939;DHT22;23057;48.554;14.454;2022-11-04T08:30:20;8.30;99.90
41939;DHT22;23057;48.554;14.454;2022-11-04T08:32:50;8.30;99.90
41939;DHT22;23057;48.554;14.454;2022-11-04T08:35:21;8.30;99.90
41939;DHT22;23057;48.554;14.454;2022-11-04T08:37:52;8.30;99.90
41939;DHT22;23057;48.554;14.454;2022-11-04T08:40:23;8.20;99.90
41939;DHT22;23057;48.554;14.454;2022-11-04T08:42:54;8.20;99.90
41939;DHT22;23057;48.554;14.454;2022-11-04T08:45:25;8.20;99.90
41939;DHT22;23057;48.554;14.454;2022-11-04T08:47:55;8.20;99.90
41939;DHT22;23057;48.554;14.454;2022-11-04T08:50:29;8.20;99.90
41939;DHT22;23057;48.554;14.454;2022-11-04T08:53:01;8.20;99.90
41939;DHT22;23057;48.554;14.454;2022-11-04T08:55:34;8.20;99.90
41939;DHT22;23057;48.554;14.454;2022-11-04T08:58:05;8.30;99.90
41939;DHT22;23057;48.554;14.454;2022-11-04T09:00:36;8.30;99.90
41939;DHT22;23057;48.554;14.454;2022-11-04T09:03:07;8.40;99.90
41939;DHT22;23057;48.554;14.454;2022-11-04T09:05:40;8.30;99.90
41939;DHT22;23057;48.554;14.454;2022-11-04T09:08:17;8.40;99.90
41939;DHT22;23057;48.554;14.454;2022-11-04T09:10:48;8.40;99.90
41939;DHT22;23057;48.554;14.454;2022-11-04T09:13:18;8.30;99.90
41939;DHT22;23057;48.554;14.454;2022-11-04T09:15:49;8.30;99.90
41939;DHT22;23057;48.554;14.454;2022-11-04T09:18:20;8.30;99.90
41939;DHT22;23057;48.554;14.454;2022-11-04T09:20:51;8.30;99.90
41939;DHT22;23057;48.554;14.454;2022-11-04T09:23:22;8.20;99.90
41939;DHT22;23057;48.554;14.454;2022-11-04T09:25:53;8.20;99.90
41939;DHT22;23057;48.554;14.454;2022-11-04T09:28:28;8.10;99.90
41939;DHT22;23057;48.554;14.454;2022-11-04T09:30:58;8.00;99.90
41939;DHT22;23057;48.554;14.454;2022-11-04T09:33:33;8.00;99.90
41939;DHT22;23057;48.554;14.454;2022-11-04T09:36:04;8.00;99.90
41939;DHT22;23057;48.554;14.454;2022-11-04T09:38:39;7.90;99.90
41939;DHT22;23057;48.554;14.454;2022-11-04T09:45:10;7.80;99.90
41939;DHT22;23057;48.554;14.454;2022-11-04T09:47:48;7.80;99.90
41939;DHT22;23057;48.554;14.454;2022-11-04T09:50:34;7.80;99.90
41939;DHT22;23057;48.554;14.454;2022-11-04T09:53:41;7.80;99.90
41939;DHT22;23057;48.554;14.454;2022-11-04T09:56:34;7.80;99.90
41939;DHT22;23057;48.554;14.454;2022-11-04T09:59:16;7.80;99.90
41939;DHT22;23057;48.554;14.454;2022-11-04T10:02:19;7.80;99.90
41939;DHT22;23057;48.554;14.454;2022-11-04T10:05:38;7.80;99.90
41939;DHT22;23057;48.554;14.454;2022-11-04T10:21:35;7.80;99.90
41939;DHT22;23057;48.554;14.454;2022-11-04T10:27:42;7.80;99.90
41939;DHT22;23057;48.554;14.454;2022-11-04T10:30:22;7.70;99.90
41939;DHT22;23057;48.554;14.454;2022-11-04T10:35:46;7.70;99.90
41939;DHT22;23057;48.554;14.454;2022-11-04T10:41:40;7.70;99.90
41939;DHT22;23057;48.554;14.454;2022-11-04T10:53:32;7.60;99.90
41939;DHT22;23057;48.554;14.454;2022-11-04T10:56:15;7.60;99.90
41939;DHT22;23057;48.554;14.454;2022-11-04T10:59:11;7.60;99.90
41939;DHT22;23057;48.554;14.454;2022-11-04T11:01:48;7.60;99.90
41939;DHT22;23057;48.554;14.454;2022-11-04T11:04:34;7.70;99.90
41939;DHT22;23057;48.554;14.454;2022-11-04T11:07:09;7.60;99.90
41939;DHT22;23057;48.554;14.454;2022-11-04T11:09:52;7.80;99.90
41939;DHT22;23057;48.554;14.454;2022-11-04T11:12:26;7.80;99.90
41939;DHT22;23057;48.554;14.454;2022-11-04T11:21:09;8.00;99.90
41939;DHT22;23057;48.554;14.454;2022-11-04T11:23:46;7.90;99.90
41939;DHT22;23057;48.554;14.454;2022-11-04T11:26:20;7.90;99.90
41939;DHT22;23057;48.554;14.454;2022-11-04T11:28:59;7.80;99.90
41939;DHT22;23057;48.554;14.454;2022-11-04T11:31:39;7.80;99.90
41939;DHT22;23057;48.554;14.454;2022-11-04T11:34:20;7.90;99.90
41939;DHT22;23057;48.554;14.454;2022-11-04T11:36:59;7.80;99.90
41939;DHT22;23057;48.554;14.454;2022-11-04T11:39:34;7.80;99.90
41939;DHT22;23057;48.554;14.454;2022-11-04T11:42:07;7.90;99.90
41939;DHT22;23057;48.554;14.454;2022-11-04T11:44:54;7.80;99.90
41939;DHT22;23057;48.554;14.454;2022-11-04T11:52:50;7.80;99.90
41939;DHT22;23057;48.554;14.454;2022-11-04T11:55:27;7.80;99.90
41939;DHT22;23057;48.554;14.454;2022-11-04T11:58:38;7.80;99.90
41939;DHT22;23057;48.554;14.454;2022-11-04T12:01:40;7.70;99.90
41939;DHT22;23057;48.554;14.454;2022-11-04T12:04:20;7.70;99.90
41939;DHT22;23057;48.554;14.454;2022-11-04T12:07:12;7.80;99.90
41939;DHT22;23057;48.554;14.454;2022-11-04T12:10:35;7.70;99.90
41939;DHT22;23057;48.554;14.454;2022-11-04T12:13:27;7.70;99.90
41939;DHT22;23057;48.554;14.454;2022-11-04T12:19:32;7.60;99.90
41939;DHT22;23057;48.554;14.454;2022-11-04T12:50:46;7.30;99.90
41939;DHT22;23057;48.554;14.454;2022-11-04T12:56:39;7.10;99.90
41939;DHT22;23057;48.554;14.454;2022-11-04T13:05:50;7.10;99.90
41939;DHT22;23057;48.554;14.454;2022-11-04T13:08:39;6.90;99.90
41939;DHT22;23057;48.554;14.454;2022-11-04T13:11:29;6.80;99.90
41939;DHT22;23057;48.554;14.454;2022-11-04T13:14:21;6.80;99.90
41939;DHT22;23057;48.554;14.454;2022-11-04T13:17:06;6.80;99.90
41939;DHT22;23057;48.554;14.454;2022-11-04T13:19:50;6.80;99.90
41939;DHT22;23057;48.554;14.454;2022-11-04T13:22:33;6.70;99.90
41939;DHT22;23057;48.554;14.454;2022-11-04T13:28:25;6.70;99.90
41939;DHT22;23057;48.554;14.454;2022-11-04T13:31:07;6.70;99.90
41939;DHT22;23057;48.554;14.454;2022-11-04T13:37:25;6.60;99.90
41939;DHT22;23057;48.554;14.454;2022-11-04T13:40:15;6.60;99.90
41939;DHT22;23057;48.554;14.454;2022-11-04T13:43:17;6.60;99.90
41939;DHT22;23057;48.554;14.454;2022-11-04T13:46:24;6.60;99.90
41939;DHT22;23057;48.554;14.454;2022-11-04T13:49:25;6.60;99.90
41939;DHT22;23057;48.554;14.454;2022-11-04T13:52:12;6.60;99.90
41939;DHT22;23057;48.554;14.454;2022-11-04T13:54:45;6.50;99.90
41939;DHT22;23057;48.554;14.454;2022-11-04T13:57:51;6.40;99.90
41939;DHT22;23057;48.554;14.454;2022-11-04T14:00:34;6.40;99.90
41939;DHT22;23057;48.554;14.454;2022-11-04T14:08:30;6.20;99.90
41939;DHT22;23057;48.554;14.454;2022-11-04T14:11:09;6.20;99.90
41939;DHT22;23057;48.554;14.454;2022-11-04T14:13:43;6.20;99.90
41939;DHT22;23057;48.554;14.454;2022-11-04T14:18:53;6.10;99.90
41939;DHT22;23057;48.554;14.454;2022-11-04T14:21:26;6.10;99.90
41939;DHT22;23057;48.554;14.454;2022-11-04T14:23:59;6.10;99.90
41939;DHT22;23057;48.554;14.454;2022-11-04T14:26:44;6.20;99.90
41939;DHT22;23057;48.554;14.454;2022-11-04T14:29:24;6.20;99.90
41939;DHT22;23057;48.554;14.454;2022-11-04T14:31:57;6.20;99.90
41939;DHT22;23057;48.554;14.454;2022-11-04T14:34:32;6.20;99.90
41939;DHT22;23057;48.554;14.454;2022-11-04T14:37:21;6.20;99.90
41939;DHT22;23057;48.554;14.454;2022-11-04T14:40:00;6.20;99.90
41939;DHT22;23057;48.554;14.454;2022-11-04T14:42:42;6.10;99.90
41939;DHT22;23057;48.554;14.454;2022-11-04T14:45:37;6.00;99.90
41939;DHT22;23057;48.554;14.454;2022-11-04T14:48:17;5.90;99.90
41939;DHT22;23057;48.554;14.454;2022-11-04T14:50:52;5.90;99.90
41939;DHT22;23057;48.554;14.454;2022-11-04T14:53:30;5.80;99.90
41939;DHT22;23057;48.554;14.454;2022-11-04T14:56:04;5.80;99.90
41939;DHT22;23057;48.554;14.454;2022-11-04T15:01:38;5.80;99.90
41939;DHT22;23057;48.554;14.454;2022-11-04T15:04:20;5.80;99.90
41939;DHT22;23057;48.554;14.454;2022-11-04T15:06:58;5.90;99.90
41939;DHT22;23057;48.554;14.454;2022-11-04T15:09:38;5.90;99.90
41939;DHT22;23057;48.554;14.454;2022-11-04T15:12:18;6.00;99.90
41939;DHT22;23057;48.554;14.454;2022-11-04T15:15:28;6.00;99.90
41939;DHT22;23057;48.554;14.454;2022-11-04T15:18:16;6.00;99.90
41939;DHT22;23057;48.554;14.454;2022-11-04T15:20:58;6.00;99.90
41939;DHT22;23057;48.554;14.454;2022-11-04T15:23:44;6.40;99.90
41939;DHT22;23057;48.554;14.454;2022-11-04T15:26:29;6.20;99.90
41939;DHT22;23057;48.554;14.454;2022-11-04T15:29:10;6.10;99.90
41939;DHT22;23057;48.554;14.454;2022-11-04T15:31:59;6.10;99.90
41939;DHT22;23057;48.554;14.454;2022-11-04T15:34:34;6.10;99.90
41939;DHT22;23057;48.554;14.454;2022-11-04T15:37:06;6.10;99.90
41939;DHT22;23057;48.554;14.454;2022-11-04T15:39:43;6.10;99.90
41939;DHT22;23057;48.554;14.454;2022-11-04T15:42:21;6.00;99.90
41939;DHT22;23057;48.554;14.454;2022-11-04T15:45:26;6.00;99.90
41939;DHT22;23057;48.554;14.454;2022-11-04T15:48:32;6.00;99.90
41939;DHT22;23057;48.554;14.454;2022-11-04T15:51:14;6.00;99.90
41939;DHT22;23057;48.554;14.454;2022-11-04T15:54:01;6.00;99.90
41939;DHT22;23057;48.554;14.454;2022-11-04T15:56:51;6.00;99.90
41939;DHT22;23057;48.554;14.454;2022-11-04T15:59:28;6.00;99.90
41939;DHT22;23057;48.554;14.454;2022-11-04T16:02:06;5.90;99.90
41939;DHT22;23057;48.554;14.454;2022-11-04T16:18:41;5.90;99.90
41939;DHT22;23057;48.554;14.454;2022-11-04T16:21:26;5.80;99.90
41939;DHT22;23057;48.554;14.454;2022-11-04T16:24:20;5.80;99.90
41939;DHT22;23057;48.554;14.454;2022-11-04T16:26:55;5.80;99.90
41939;DHT22;23057;48.554;14.454;2022-11-04T16:29:29;5.80;99.90
41939;DHT22;23057;48.554;14.454;2022-11-04T16:32:06;5.90;99.90
41939;DHT22;23057;48.554;14.454;2022-11-04T16:34:49;5.90;99.90
41939;DHT22;23057;48.554;14.454;2022-11-04T16:37:24;5.90;99.90
41939;DHT22;23057;48.554;14.454;2022-11-04T16:39:56;5.90;99.90
41939;DHT22;23057;48.554;14.454;2022-11-04T16:42:27;5.90;99.90
41939;DHT22;23057;48.554;14.454;2022-11-04T16:45:00;6.00;99.90
41939;DHT22;23057;48.554;14.454;2022-11-04T16:47:36;5.90;99.90
41939;DHT22;23057;48.554;14.454;2022-11-04T16:50:14;5.90;99.90
41939;DHT22;23057;48.554;14.454;2022-11-04T16:52:46;5.80;99.90
41939;DHT22;23057;48.554;14.454;2022-11-04T16:55:18;5.80;99.90
41939;DHT22;23057;48.554;14.454;2022-11-04T16:57:58;5.80;99.90
41939;DHT22;23057;48.554;14.454;2022-11-04T17:00:33;5.80;99.90
41939;DHT22;23057;48.554;14.454;2022-11-04T17:03:16;5.80;99.90
41939;DHT22;23057;48.554;14.454;2022-11-04T17:05:54;5.80;99.90
41939;DHT22;23057;48.554;14.454;2022-11-04T17:08:26;5.80;99.90
41939;DHT22;23057;48.554;14.454;2022-11-04T17:10:57;5.80;99.90
41939;DHT22;23057;48.554;14.454;2022-11-04T17:13:28;6.50;99.90
41939;DHT22;23057;48.554;14.454;2022-11-04T17:15:59;6.60;99.90
41939;DHT22;23057;48.554;14.454;2022-11-04T17:18:31;6.60;99.90
41939;DHT22;23057;48.554;14.454;2022-11-04T17:21:10;6.20;99.90
41939;DHT22;23057;48.554;14.454;2022-11-04T17:23:46;6.10;99.90
41939;DHT22;23057;48.554;14.454;2022-11-04T17:26:17;6.00;99.90
41939;DHT22;23057;48.554;14.454;2022-11-04T17:28:48;6.00;99.90
41939;DHT22;23057;48.554;14.454;2022-11-04T17:31:19;6.00;99.90
41939;DHT22;23057;48.554;14.454;2022-11-04T17:33:50;6.00;99.90
41939;DHT22;23057;48.554;14.454;2022-11-04T17:36:21;6.00;99.90
41939;DHT22;23057;48.554;14.454;2022-11-04T17:38:53;5.90;99.90
41939;DHT22;23057;48.554;14.454;2022-11-04T17:41:24;6.00;99.90
41939;DHT22;23057;48.554;14.454;2022-11-04T17:44:13;6.00;99.90
41939;DHT22;23057;48.554;14.454;2022-11-04T17:46:44;6.00;99.90
41939;DHT22;23057;48.554;14.454;2022-11-04T17:49:20;6.00;99.90
41939;DHT22;23057;48.554;14.454;2022-11-04T17:51:56;6.00;99.90
41939;DHT22;23057;48.554;14.454;2022-11-04T17:54:30;6.00;99.90
41939;DHT22;23057;48.554;14.454;2022-11-04T17:57:01;6.00;99.90
41939;DHT22;23057;48.554;14.454;2022-11-04T17:59:32;6.00;99.90
41939;DHT22;23057;48.554;14.454;2022-11-04T18:02:03;6.00;99.90
41939;DHT22;23057;48.554;14.454;2022-11-04T18:04:34;6.00;99.90
41939;DHT22;23057;48.554;14.454;2022-11-04T18:07:05;6.00;99.90
41939;DHT22;23057;48.554;14.454;2022-11-04T18:09:36;5.90;99.90
41939;DHT22;23057;48.554;14.454;2022-11-04T18:12:08;5.80;99.90
41939;DHT22;23057;48.554;14.454;2022-11-04T18:14:57;5.70;99.90
41939;DHT22;23057;48.554;14.454;2022-11-04T18:17:28;5.70;99.90
41939;DHT22;23057;48.554;14.454;2022-11-04T18:19:59;5.70;99.90
41939;DHT22;23057;48.554;14.454;2022-11-04T18:22:30;5.80;99.90
41939;DHT22;23057;48.554;14.454;2022-11-04T18:25:01;5.80;99.90
41939;DHT22;23057;48.554;14.454;2022-11-04T18:27:32;5.90;99.90
41939;DHT22;23057;48.554;14.454;2022-11-04T18:30:04;5.90;99.90
41939;DHT22;23057;48.554;14.454;2022-11-04T18:32:35;6.00;99.90
41939;DHT22;23057;48.554;14.454;2022-11-04T18:35:07;6.00;99.90
41939;DHT22;23057;48.554;14.454;2022-11-04T18:37:38;6.00;99.90
41939;DHT22;23057;48.554;14.454;2022-11-04T18:40:09;6.00;99.90
41939;DHT22;23057;48.554;14.454;2022-11-04T18:42:41;6.00;99.90
41939;DHT22;23057;48.554;14.454;2022-11-04T18:45:13;6.10;99.90
41939;DHT22;23057;48.554;14.454;2022-11-04T18:47:47;6.10;99.90
41939;DHT22;23057;48.554;14.454;2022-11-04T18:50:19;6.10;99.90
41939;DHT22;23057;48.554;14.454;2022-11-04T18:52:53;6.10;99.90
41939;DHT22;23057;48.554;14.454;2022-11-04T18:55:25;6.10;99.90
41939;DHT22;23057;48.554;14.454;2022-11-04T18:57:55;6.00;99.90
41939;DHT22;23057;48.554;14.454;2022-11-04T19:00:26;6.00;99.90
41939;DHT22;23057;48.554;14.454;2022-11-04T19:02:58;6.00;99.90
41939;DHT22;23057;48.554;14.454;2022-11-04T19:05:28;6.00;99.90
41939;DHT22;23057;48.554;14.454;2022-11-04T19:07:59;6.00;99.90
41939;DHT22;23057;48.554;14.454;2022-11-04T19:10:30;6.00;99.90